Time;durP1;ratioP1;P1;durP2;ratioP2;P2;SDS_P1;SDS_P2;PMS_P1;PMS_P2;Temp;Humidity;BMP_temperature;BMP_pressure;BME280_temperature;BME280_humidity;BME280_pressure;Samples;Min_cycle;Max_cycle;Signal;HPM_P1;HPM_P2
2022/04/14 00:00:23;;;;;;;39.67;13.10;;;14.30;19.40;;;;;;5026424;28;20467;-59
2022/04/14 00:02:50;;;;;;;40.57;11.70;;;14.20;18.80;;;;;;5026089;28;20513;-58
2022/04/14 00:05:17;;;;;;;42.17;12.50;;;14.20;19.20;;;;;;5030236;28;20961;-59
2022/04/14 00:07:44;;;;;;;40.63;13.17;;;14.20;19.10;;;;;;5026519;28;20486;-60
2022/04/14 00:10:12;;;;;;;37.27;10.83;;;14.10;19.40;;;;;;5025222;28;20462;-60
2022/04/14 00:12:39;;;;;;;37.23;11.60;;;14.10;19.70;;;;;;5028227;28;20487;-60
2022/04/14 00:15:08;;;;;;;39.63;12.07;;;14.00;19.50;;;;;;5036155;28;20466;-59
2022/04/14 00:17:35;;;;;;;39.80;12.10;;;14.00;19.50;;;;;;5026823;28;20479;-59
2022/04/14 00:20:05;;;;;;;39.67;12.40;;;14.00;19.50;;;;;;5032451;28;20489;-59
2022/04/14 00:22:31;;;;;;;38.40;12.83;;;13.90;19.70;;;;;;5027349;28;20458;-60
2022/04/14 00:24:58;;;;;;;38.17;12.00;;;13.90;20.10;;;;;;5021699;28;20650;-60
2022/04/14 00:27:25;;;;;;;40.00;11.33;;;14.00;20.10;;;;;;5028124;28;20486;-59
2022/04/14 00:29:52;;;;;;;37.70;11.27;;;13.90;20.00;;;;;;5036943;28;20494;-59
2022/04/14 00:32:20;;;;;;;40.40;12.23;;;14.00;20.20;;;;;;5029574;28;20478;-62
2022/04/14 00:34:47;;;;;;;41.40;11.47;;;14.00;20.50;;;;;;5031391;28;20467;-59
2022/04/14 00:37:17;;;;;;;37.60;11.57;;;13.90;20.00;;;;;;5028352;28;20483;-59
2022/04/14 00:39:44;;;;;;;40.10;12.30;;;13.90;19.90;;;;;;5028577;28;20469;-62
2022/04/14 00:42:11;;;;;;;37.10;10.20;;;13.90;20.00;;;;;;5028321;28;20478;-60
2022/04/14 00:44:37;;;;;;;40.47;11.97;;;13.90;20.10;;;;;;5031406;28;20469;-59
2022/04/14 00:47:06;;;;;;;36.77;11.70;;;13.90;20.30;;;;;;5027960;28;20835;-62
2022/04/14 00:49:35;;;;;;;42.10;13.57;;;13.90;20.30;;;;;;5033298;28;20480;-60
2022/04/14 00:52:02;;;;;;;40.00;15.80;;;13.90;20.20;;;;;;5034044;28;21196;-61
2022/04/14 00:54:30;;;;;;;40.03;13.20;;;13.80;20.00;;;;;;5031493;28;20493;-61
2022/04/14 00:56:58;;;;;;;40.10;12.20;;;13.90;20.90;;;;;;5026608;28;20526;-59
2022/04/14 00:59:25;;;;;;;38.87;12.00;;;13.90;21.60;;;;;;5029936;28;20474;-62
2022/04/14 01:01:52;;;;;;;39.73;12.47;;;13.80;21.00;;;;;;5039349;28;20478;-61
2022/04/14 01:04:20;;;;;;;39.10;12.10;;;13.80;20.50;;;;;;5030860;28;20952;-62
2022/04/14 01:06:48;;;;;;;41.37;14.17;;;13.70;20.70;;;;;;5027729;28;20497;-61
2022/04/14 01:09:19;;;;;;;40.30;12.97;;;13.70;20.60;;;;;;5021358;28;20467;-62
2022/04/14 01:11:46;;;;;;;38.93;13.03;;;13.70;20.80;;;;;;5036620;28;21168;-62
2022/04/14 01:14:20;;;;;;;39.40;12.30;;;13.60;20.90;;;;;;5031355;28;20474;-64
2022/04/14 01:16:46;;;;;;;39.67;13.03;;;13.60;21.20;;;;;;5033007;28;20540;-63
2022/04/14 01:19:13;;;;;;;41.73;14.17;;;13.60;21.80;;;;;;5026321;28;20463;-61
2022/04/14 01:21:45;;;;;;;41.90;12.40;;;13.50;21.20;;;;;;5021003;28;20455;-63
2022/04/14 01:24:14;;;;;;;38.57;12.40;;;13.50;21.60;;;;;;5027198;28;20462;-61
2022/04/14 01:26:41;;;;;;;38.73;12.33;;;13.40;21.60;;;;;;5029067;28;20483;-62
2022/04/14 01:29:21;;;;;;;39.03;11.80;;;13.40;21.90;;;;;;5026739;28;20459;-63
2022/04/14 01:31:47;;;;;;;39.40;13.40;;;13.30;21.90;;;;;;5024286;28;20472;-61
2022/04/14 01:34:14;;;;;;;37.00;11.27;;;13.30;21.90;;;;;;5036177;28;20461;-60
2022/04/14 01:36:41;;;;;;;39.10;12.40;;;13.20;22.20;;;;;;5032496;28;20487;-63
2022/04/14 01:39:10;;;;;;;36.47;11.30;;;13.10;22.40;;;;;;5029491;28;20462;-61
2022/04/14 01:41:38;;;;;;;37.07;11.37;;;13.10;22.40;;;;;;5027409;28;20550;-61
2022/04/14 01:44:06;;;;;;;49.07;12.87;;;13.20;22.50;;;;;;5036621;28;20450;-61
2022/04/14 01:46:33;;;;;;;36.97;12.87;;;13.10;22.20;;;;;;5035344;28;20490;-61
2022/04/14 01:49:00;;;;;;;39.27;11.93;;;13.10;22.20;;;;;;5035954;28;20450;-64
2022/04/14 01:51:27;;;;;;;40.00;13.13;;;13.10;22.40;;;;;;5030275;28;20520;-61
2022/04/14 01:53:54;;;;;;;39.77;12.00;;;13.10;22.90;;;;;;5028327;28;20459;-61
2022/04/14 01:56:21;;;;;;;39.20;11.07;;;13.10;22.70;;;;;;5025919;28;20486;-60
2022/04/14 01:58:49;;;;;;;39.00;10.87;;;13.10;22.50;;;;;;5036965;28;20462;-61
2022/04/14 02:01:16;;;;;;;40.47;13.53;;;13.10;22.70;;;;;;5016598;28;20483;-60
2022/04/14 02:03:43;;;;;;;35.77;10.23;;;13.10;22.60;;;;;;5028825;28;20458;-60
2022/04/14 02:06:10;;;;;;;38.87;11.57;;;13.20;23.00;;;;;;5027222;28;20477;-61
2022/04/14 02:08:37;;;;;;;37.07;10.40;;;13.20;22.60;;;;;;5028309;28;20470;-61
2022/04/14 02:11:04;;;;;;;37.43;11.20;;;13.20;22.20;;;;;;5033775;28;20457;-60
2022/04/14 02:13:31;;;;;;;37.67;10.57;;;13.20;22.00;;;;;;5026114;28;20863;-61
2022/04/14 02:15:59;;;;;;;35.60;10.07;;;13.20;22.20;;;;;;5021444;28;21265;-61
2022/04/14 02:18:27;;;;;;;38.43;12.00;;;13.10;22.10;;;;;;5030109;28;20470;-61
2022/04/14 02:20:54;;;;;;;38.47;10.83;;;13.10;22.30;;;;;;5023860;28;20458;-61
2022/04/14 02:23:20;;;;;;;41.33;11.77;;;13.00;22.50;;;;;;5027238;28;21011;-59
2022/04/14 02:25:47;;;;;;;37.63;11.10;;;13.00;22.80;;;;;;5023464;28;21044;-60
2022/04/14 02:28:14;;;;;;;37.30;11.33;;;12.80;23.10;;;;;;5025597;28;21193;-61
2022/04/14 02:30:41;;;;;;;39.83;11.13;;;12.80;23.40;;;;;;5031383;28;20463;-61
2022/04/14 02:33:09;;;;;;;37.60;11.40;;;12.70;23.80;;;;;;5036658;28;20484;-61
2022/04/14 02:35:36;;;;;;;42.90;11.87;;;12.70;24.30;;;;;;5028150;28;20463;-61
2022/04/14 02:38:03;;;;;;;38.37;12.00;;;12.60;24.00;;;;;;5024516;28;20491;-60
2022/04/14 02:40:30;;;;;;;37.67;11.47;;;12.60;24.80;;;;;;5038818;28;20461;-61
2022/04/14 02:42:57;;;;;;;36.83;10.70;;;12.60;25.40;;;;;;5034057;28;20459;-60
2022/04/14 02:45:25;;;;;;;41.93;10.90;;;12.60;25.20;;;;;;5027004;28;20459;-62
2022/04/14 02:47:52;;;;;;;40.30;11.37;;;12.60;25.50;;;;;;5027371;28;20486;-61
2022/04/14 02:50:22;;;;;;;38.50;10.93;;;12.60;25.80;;;;;;5031510;28;20466;-58
2022/04/14 02:52:49;;;;;;;37.70;11.17;;;12.60;25.50;;;;;;5026186;28;20474;-59
2022/04/14 02:55:17;;;;;;;37.20;11.73;;;12.50;25.30;;;;;;5028198;28;20459;-59
2022/04/14 02:57:44;;;;;;;35.57;11.03;;;12.40;25.30;;;;;;5028953;28;21198;-59
2022/04/14 03:00:12;;;;;;;35.73;10.00;;;12.40;25.40;;;;;;5028407;28;21182;-62
2022/04/14 03:02:40;;;;;;;34.77;10.27;;;12.30;26.00;;;;;;5022912;28;20462;-61
2022/04/14 03:05:07;;;;;;;37.60;10.77;;;12.30;25.90;;;;;;5035656;28;20470;-60
2022/04/14 03:07:36;;;;;;;37.17;11.60;;;12.30;26.00;;;;;;5025309;28;20869;-60
2022/04/14 03:10:04;;;;;;;40.13;10.20;;;12.20;25.90;;;;;;5028815;28;20469;-59
2022/04/14 03:12:40;;;;;;;37.27;10.43;;;12.20;26.10;;;;;;5020548;28;20487;-59
2022/04/14 03:15:08;;;;;;;35.00;9.87;;;12.10;26.60;;;;;;5024604;28;21004;-58
2022/04/14 03:17:35;;;;;;;34.57;9.77;;;12.10;26.90;;;;;;5023303;28;20482;-60
2022/04/14 03:20:01;;;;;;;35.13;10.20;;;12.10;26.70;;;;;;5023226;28;20856;-58
2022/04/14 03:22:33;;;;;;;34.97;10.03;;;12.00;26.30;;;;;;5027104;28;20553;-58
2022/04/14 03:25:02;;;;;;;37.93;10.80;;;11.90;26.40;;;;;;5040430;28;20524;-58
2022/04/14 03:27:28;;;;;;;36.60;9.80;;;11.90;26.60;;;;;;5027280;28;20486;-59
2022/04/14 03:29:56;;;;;;;38.60;9.80;;;11.90;26.80;;;;;;5024503;28;20459;-61
2022/04/14 03:32:25;;;;;;;36.43;10.33;;;11.90;27.10;;;;;;5023338;28;20482;-62
2022/04/14 03:34:52;;;;;;;38.23;11.80;;;11.90;27.10;;;;;;5027186;28;20551;-59
2022/04/14 03:37:18;;;;;;;41.60;11.20;;;11.90;27.10;;;;;;5025459;28;20506;-58
2022/04/14 03:39:45;;;;;;;36.57;10.63;;;11.80;27.00;;;;;;5028099;28;20964;-62
2022/04/14 03:42:13;;;;;;;39.67;10.40;;;11.80;27.00;;;;;;5026635;28;20467;-59
2022/04/14 03:44:40;;;;;;;37.50;11.03;;;11.80;27.00;;;;;;5027581;28;20474;-58
2022/04/14 03:47:08;;;;;;;44.40;11.47;;;11.70;27.20;;;;;;5035932;28;20498;-58
2022/04/14 03:49:35;;;;;;;40.80;10.93;;;11.70;27.20;;;;;;5026906;28;20466;-60
2022/04/14 03:52:02;;;;;;;36.87;10.63;;;11.60;27.30;;;;;;5023082;28;20470;-59
2022/04/14 03:54:28;;;;;;;40.63;11.43;;;11.50;27.70;;;;;;5030502;28;20464;-61
2022/04/14 03:56:55;;;;;;;39.23;10.40;;;11.50;27.50;;;;;;5029153;28;20486;-59
2022/04/14 03:59:23;;;;;;;39.27;11.10;;;11.50;28.20;;;;;;5022627;28;20994;-61
2022/04/14 04:01:50;;;;;;;36.50;10.87;;;11.40;27.60;;;;;;5018223;28;20480;-60
2022/04/14 04:04:17;;;;;;;37.57;10.10;;;11.40;27.90;;;;;;5021925;28;20463;-59
2022/04/14 04:06:45;;;;;;;37.77;11.20;;;11.40;27.50;;;;;;5025385;28;21058;-60
2022/04/14 04:09:12;;;;;;;36.50;10.37;;;11.30;27.60;;;;;;5028803;28;20467;-60
2022/04/14 04:11:39;;;;;;;43.17;11.27;;;11.30;27.90;;;;;;5022553;28;20467;-59
2022/04/14 04:14:06;;;;;;;37.13;11.10;;;11.30;27.80;;;;;;5037400;28;20490;-61
2022/04/14 04:16:34;;;;;;;36.07;10.80;;;11.30;27.80;;;;;;5034674;28;20492;-60
2022/04/14 04:19:01;;;;;;;37.50;10.63;;;11.30;28.00;;;;;;5025246;28;20470;-59
2022/04/14 04:21:30;;;;;;;37.73;10.97;;;11.20;27.90;;;;;;5027837;28;20459;-59
2022/04/14 04:23:57;;;;;;;36.27;10.53;;;11.20;28.00;;;;;;5028975;28;20454;-60
2022/04/14 04:26:24;;;;;;;37.33;10.43;;;11.30;28.50;;;;;;5033690;28;20483;-59
2022/04/14 04:28:50;;;;;;;41.30;11.10;;;11.30;29.00;;;;;;5026000;28;20489;-59
2022/04/14 04:31:17;;;;;;;37.60;10.20;;;11.30;29.70;;;;;;5024338;28;20471;-59
2022/04/14 04:33:45;;;;;;;38.90;11.53;;;11.30;28.80;;;;;;5019911;28;21027;-59
2022/04/14 04:36:12;;;;;;;40.80;11.03;;;11.30;28.50;;;;;;5021365;28;20475;-59
2022/04/14 04:38:39;;;;;;;37.47;11.40;;;11.30;28.20;;;;;;5021035;28;20463;-62
2022/04/14 04:41:06;;;;;;;40.50;10.67;;;11.30;28.20;;;;;;5020940;28;21757;-59
2022/04/14 04:43:32;;;;;;;42.43;10.97;;;11.20;28.20;;;;;;5021273;28;20463;-58
2022/04/14 04:45:59;;;;;;;40.27;10.87;;;11.20;28.20;;;;;;5029313;28;20497;-59
2022/04/14 04:48:26;;;;;;;37.67;11.27;;;11.20;28.30;;;;;;5025333;28;20475;-60
2022/04/14 04:50:54;;;;;;;37.20;11.40;;;11.20;28.70;;;;;;5021688;28;20473;-60
2022/04/14 04:53:21;;;;;;;39.13;10.90;;;11.10;29.00;;;;;;5027959;28;21012;-58
2022/04/14 04:55:48;;;;;;;37.63;10.20;;;11.20;29.40;;;;;;5021520;28;20475;-60
2022/04/14 04:58:15;;;;;;;36.00;10.50;;;11.20;29.60;;;;;;5026232;28;20470;-60
2022/04/14 05:00:43;;;;;;;38.97;10.33;;;11.30;29.60;;;;;;5021925;28;20471;-59
2022/04/14 05:03:10;;;;;;;36.30;9.53;;;11.30;29.60;;;;;;5019000;28;20460;-59
2022/04/14 05:05:37;;;;;;;37.30;10.30;;;11.40;29.20;;;;;;5022099;28;20829;-61
2022/04/14 05:08:07;;;;;;;38.53;11.33;;;11.40;29.00;;;;;;5019242;28;20486;-59
2022/04/14 05:10:34;;;;;;;36.57;11.00;;;11.50;28.90;;;;;;5035447;28;20455;-62
2022/04/14 05:13:01;;;;;;;37.57;10.60;;;11.60;28.70;;;;;;5028613;28;21241;-60
2022/04/14 05:15:28;;;;;;;40.13;10.63;;;11.80;28.50;;;;;;5028563;28;21237;-61
2022/04/14 05:17:55;;;;;;;42.30;9.90;;;12.00;28.10;;;;;;5028956;28;20494;-61
2022/04/14 05:20:22;;;;;;;38.33;10.67;;;12.20;27.90;;;;;;5032305;28;20471;-61
2022/04/14 05:22:49;;;;;;;37.63;10.40;;;12.40;27.50;;;;;;5043448;28;20466;-62
2022/04/14 05:25:17;;;;;;;37.47;9.77;;;12.60;26.80;;;;;;5030325;28;20466;-58
2022/04/14 05:27:43;;;;;;;39.30;10.17;;;12.80;25.70;;;;;;5030126;28;20496;-58
2022/04/14 05:30:11;;;;;;;36.50;9.67;;;12.90;25.90;;;;;;5024347;28;20500;-59
2022/04/14 05:32:39;;;;;;;37.67;10.20;;;13.00;25.90;;;;;;5021877;28;20467;-62
2022/04/14 05:35:07;;;;;;;39.00;11.00;;;13.10;25.80;;;;;;5031456;28;20525;-61
2022/04/14 05:37:35;;;;;;;36.07;9.63;;;13.50;26.00;;;;;;5028613;28;20490;-59
2022/04/14 05:40:02;;;;;;;36.37;10.23;;;13.90;24.80;;;;;;5026333;28;20472;-58
2022/04/14 05:42:30;;;;;;;37.00;9.60;;;14.40;23.20;;;;;;5037309;28;20949;-59
2022/04/14 05:44:57;;;;;;;36.53;9.70;;;14.80;21.90;;;;;;5023805;28;20451;-57
2022/04/14 05:47:24;;;;;;;39.13;9.80;;;15.20;20.80;;;;;;5025016;28;20482;-58
2022/04/14 05:49:51;;;;;;;35.80;9.03;;;15.70;19.90;;;;;;5034522;28;20917;-58
2022/04/14 05:52:18;;;;;;;40.80;9.07;;;16.30;19.00;;;;;;5034816;28;20989;-58
2022/04/14 05:54:46;;;;;;;39.03;9.30;;;17.30;17.50;;;;;;5036762;28;20486;-58
2022/04/14 05:57:13;;;;;;;36.90;9.60;;;18.40;15.60;;;;;;5029564;28;20525;-58
2022/04/14 05:59:41;;;;;;;35.73;9.37;;;19.60;13.60;;;;;;5028228;28;20458;-59
2022/04/14 06:02:09;;;;;;;35.97;8.80;;;20.70;12.20;;;;;;5029292;28;20478;-61
2022/04/14 06:04:36;;;;;;;36.73;8.90;;;21.80;9.70;;;;;;5034667;28;20454;-60
2022/04/14 06:07:02;;;;;;;34.57;8.10;;;23.20;7.80;;;;;;5035242;28;20486;-62
2022/04/14 06:09:29;;;;;;;35.07;9.63;;;24.30;5.70;;;;;;5028386;28;20960;-58
2022/04/14 06:11:56;;;;;;;32.87;7.47;;;25.30;3.80;;;;;;5026828;28;20463;-59
2022/04/14 06:14:23;;;;;;;33.77;9.43;;;26.00;2.90;;;;;;5029339;28;20491;-60
2022/04/14 06:16:51;;;;;;;33.70;8.10;;;26.70;1.50;;;;;;5026985;28;20479;-58
2022/04/14 06:19:17;;;;;;;29.97;7.13;;;27.40;1.00;;;;;;5029174;28;20463;-57
2022/04/14 06:21:44;;;;;;;35.83;8.13;;;28.30;1.00;;;;;;5026951;28;20462;-58
2022/04/14 06:24:11;;;;;;;34.30;8.63;;;29.10;1.00;;;;;;5028385;28;20461;-57
2022/04/14 06:26:38;;;;;;;35.57;8.47;;;30.00;1.00;;;;;;5028603;28;20556;-58
2022/04/14 06:29:04;;;;;;;30.10;7.67;;;30.80;1.00;;;;;;5030707;28;20459;-58
2022/04/14 06:31:31;;;;;;;29.90;7.90;;;31.60;1.00;;;;;;5027669;28;20479;-58
2022/04/14 06:33:59;;;;;;;30.43;7.60;;;32.40;1.00;;;;;;5026050;28;20479;-58
2022/04/14 06:36:26;;;;;;;29.07;7.53;;;33.10;1.00;;;;;;5037367;28;20853;-59
2022/04/14 06:38:53;;;;;;;29.07;8.00;;;33.70;1.00;;;;;;5030517;28;20544;-59
2022/04/14 06:41:20;;;;;;;31.70;8.07;;;34.20;1.00;;;;;;5028234;28;20500;-61
2022/04/14 06:43:49;;;;;;;30.13;7.73;;;34.70;1.00;;;;;;5021857;28;21011;-57
2022/04/14 06:46:16;;;;;;;30.70;7.40;;;35.10;1.00;;;;;;5022713;28;20483;-56
2022/04/14 06:48:43;;;;;;;32.20;8.60;;;35.30;1.00;;;;;;5030447;28;20501;-58
2022/04/14 06:51:11;;;;;;;31.50;7.83;;;35.50;1.00;;;;;;5033462;28;20951;-57
2022/04/14 06:53:38;;;;;;;28.93;8.40;;;35.50;1.00;;;;;;5020805;28;21141;-58
2022/04/14 06:56:05;;;;;;;29.13;7.70;;;35.20;1.00;;;;;;5026452;28;20655;-57
2022/04/14 06:58:32;;;;;;;28.77;7.77;;;34.50;1.00;;;;;;5024112;28;20490;-58
2022/04/14 07:00:59;;;;;;;29.13;8.20;;;33.90;1.00;;;;;;5026142;28;20826;-57
2022/04/14 07:03:27;;;;;;;29.67;8.00;;;33.40;1.00;;;;;;5027057;28;20542;-57
2022/04/14 07:05:54;;;;;;;33.03;8.70;;;33.30;1.00;;;;;;5025014;28;20460;-58
2022/04/14 07:08:24;;;;;;;31.90;8.07;;;33.30;1.00;;;;;;5030812;28;20463;-58
2022/04/14 07:10:51;;;;;;;29.40;7.67;;;32.80;1.00;;;;;;5026044;28;20459;-58
2022/04/14 07:13:18;;;;;;;30.47;7.90;;;32.30;1.00;;;;;;5025764;28;20465;-58
2022/04/14 07:15:45;;;;;;;28.87;7.50;;;32.20;1.00;;;;;;5029082;28;20455;-58
2022/04/14 07:18:12;;;;;;;31.30;8.83;;;32.10;1.00;;;;;;5027365;28;20952;-59
2022/04/14 07:20:39;;;;;;;31.70;8.57;;;31.80;1.00;;;;;;5023265;28;20474;-57
2022/04/14 07:23:06;;;;;;;32.80;8.23;;;31.40;1.00;;;;;;5026966;28;20468;-61
2022/04/14 07:25:34;;;;;;;30.13;8.07;;;31.10;1.00;;;;;;5029290;28;20964;-58
2022/04/14 07:28:02;;;;;;;31.30;7.80;;;30.90;1.00;;;;;;5023028;28;20482;-59
2022/04/14 07:30:28;;;;;;;31.53;8.93;;;30.80;1.00;;;;;;5023364;28;20471;-58
2022/04/14 07:32:55;;;;;;;30.10;7.73;;;30.90;1.00;;;;;;5028581;28;20473;-58
2022/04/14 07:35:23;;;;;;;32.90;8.10;;;30.90;1.00;;;;;;5021588;28;20497;-58
2022/04/14 07:37:50;;;;;;;30.93;7.97;;;31.10;1.00;;;;;;5029773;28;20479;-58
2022/04/14 07:40:16;;;;;;;29.30;7.40;;;31.30;1.00;;;;;;5026948;28;20463;-59
2022/04/14 07:42:46;;;;;;;33.17;8.50;;;31.60;1.00;;;;;;5034809;28;20833;-57
2022/04/14 07:45:16;;;;;;;30.23;7.77;;;32.00;1.00;;;;;;5028377;28;20830;-57
2022/04/14 07:47:43;;;;;;;29.20;8.17;;;32.30;1.00;;;;;;5027393;28;20902;-58
2022/04/14 07:50:10;;;;;;;31.27;8.50;;;32.70;1.00;;;;;;5030702;28;20475;-58
2022/04/14 07:52:48;;;;;;;34.30;8.60;;;32.90;1.00;;;;;;5034999;28;20465;-58
2022/04/14 07:55:19;;;;;;;34.67;9.10;;;33.10;1.00;;;;;;5027913;28;20543;-59
2022/04/14 07:57:47;;;;;;;30.93;8.30;;;33.10;1.00;;;;;;5029575;28;21015;-58
2022/04/14 08:00:15;;;;;;;34.10;8.87;;;33.00;1.00;;;;;;5022330;28;20467;-58
2022/04/14 08:02:54;;;;;;;30.00;9.13;;;33.10;1.00;;;;;;5020456;28;20468;-60
2022/04/14 08:05:22;;;;;;;33.33;8.10;;;33.90;1.00;;;;;;5027991;28;20860;-59
2022/04/14 08:07:49;;;;;;;31.17;8.70;;;35.00;1.00;;;;;;5021374;28;20533;-58
2022/04/14 08:10:16;;;;;;;37.93;9.20;;;35.90;1.00;;;;;;5020445;28;20450;-59
2022/04/14 08:12:43;;;;;;;31.17;8.40;;;36.70;1.00;;;;;;5032116;28;20458;-60
2022/04/14 08:15:12;;;;;;;32.50;8.60;;;37.40;1.00;;;;;;5017547;28;20483;-59
2022/04/14 08:17:40;;;;;;;30.13;7.87;;;37.80;1.00;;;;;;5022704;28;20488;-61
2022/04/14 08:20:08;;;;;;;31.77;8.50;;;37.90;1.00;;;;;;5030206;28;20478;-59
2022/04/14 08:22:49;;;;;;;30.20;7.57;;;38.00;1.00;;;;;;5026658;28;20953;-59
2022/04/14 08:25:17;;;;;;;29.57;8.37;;;38.30;1.00;;;;;;5023699;28;20443;-60
2022/04/14 08:27:44;;;;;;;34.17;8.57;;;38.40;1.00;;;;;;5026176;28;20478;-58
2022/04/14 08:30:12;;;;;;;34.80;8.10;;;38.50;1.00;;;;;;5042955;28;20548;-59
2022/04/14 08:32:39;;;;;;;31.27;8.80;;;38.40;1.00;;;;;;5022390;28;20467;-59
2022/04/14 08:35:07;;;;;;;33.47;8.60;;;38.30;1.00;;;;;;5033083;28;20530;-58
2022/04/14 08:37:34;;;;;;;33.33;8.73;;;38.40;1.00;;;;;;5033559;28;20481;-59
2022/04/14 08:40:02;;;;;;;29.40;7.93;;;38.60;1.00;;;;;;5018606;28;20478;-59
2022/04/14 08:42:35;;;;;;;31.27;8.63;;;38.70;1.00;;;;;;5034931;28;20932;-61
2022/04/14 08:45:05;;;;;;;27.60;7.70;;;39.20;1.00;;;;;;5020194;28;20466;-61
2022/04/14 08:47:36;;;;;;;33.83;7.07;;;39.90;1.00;;;;;;5038911;28;20477;-60
2022/04/14 08:50:03;;;;;;;30.90;8.23;;;40.40;1.00;;;;;;5029198;28;20508;-60
2022/04/14 08:52:33;;;;;;;33.03;8.17;;;41.10;1.00;;;;;;5030681;28;20973;-60
2022/04/14 08:55:01;;;;;;;32.30;9.37;;;41.90;1.00;;;;;;5025215;28;20478;-59
2022/04/14 08:57:29;;;;;;;32.00;7.47;;;42.70;1.00;;;;;;5024822;28;20509;-61
2022/04/14 08:59:58;;;;;;;32.00;7.80;;;43.30;1.00;;;;;;5027121;28;20467;-60
2022/04/14 09:02:27;;;;;;;28.87;7.30;;;43.60;1.00;;;;;;5027255;28;20474;-61
2022/04/14 09:04:56;;;;;;;28.20;7.40;;;43.90;1.00;;;;;;5030781;28;20520;-60
2022/04/14 09:07:23;;;;;;;28.93;7.50;;;44.60;1.00;;;;;;5024739;28;21081;-58
2022/04/14 09:09:50;;;;;;;31.20;7.70;;;45.00;1.00;;;;;;5046470;28;20466;-59
2022/04/14 09:12:17;;;;;;;30.50;7.83;;;44.70;1.00;;;;;;5032090;28;20482;-60
2022/04/14 09:14:44;;;;;;;26.20;7.13;;;44.30;1.00;;;;;;5034624;28;20490;-59
2022/04/14 09:17:11;;;;;;;27.67;8.23;;;44.00;1.00;;;;;;5029105;28;20482;-60
2022/04/14 09:19:39;;;;;;;28.27;7.97;;;44.00;1.00;;;;;;5025968;28;20877;-60
2022/04/14 09:22:08;;;;;;;33.50;9.80;;;44.20;1.00;;;;;;5024143;28;20461;-60
2022/04/14 09:24:42;;;;;;;28.50;7.63;;;44.40;1.00;;;;;;5031082;28;20458;-60
2022/04/14 09:27:10;;;;;;;28.87;8.60;;;43.80;1.00;;;;;;5024419;28;21011;-60
2022/04/14 09:29:46;;;;;;;30.73;8.73;;;43.60;1.00;;;;;;5032394;28;20473;-58
2022/04/14 09:32:27;;;;;;;33.60;8.50;;;44.50;1.00;;;;;;5034505;28;20478;-60
2022/04/14 09:34:54;;;;;;;26.80;6.90;;;45.90;1.00;;;;;;5027821;28;20975;-60
2022/04/14 09:37:24;;;;;;;30.90;7.07;;;47.00;1.00;;;;;;5038803;28;20494;-59
2022/04/14 09:39:53;;;;;;;29.10;7.20;;;47.70;1.00;;;;;;5029256;28;20474;-59
2022/04/14 09:42:22;;;;;;;28.70;9.47;;;47.90;1.00;;;;;;5034633;28;20467;-58
2022/04/14 09:44:50;;;;;;;26.77;7.50;;;48.40;1.00;;;;;;5025416;28;20455;-59
2022/04/14 09:47:26;;;;;;;25.43;7.83;;;49.00;1.00;;;;;;5041896;28;20478;-59
2022/04/14 09:49:53;;;;;;;25.50;8.40;;;49.50;1.00;;;;;;5023376;28;20467;-59
2022/04/14 09:52:20;;;;;;;26.33;8.57;;;49.80;1.00;;;;;;5037485;28;20459;-59
2022/04/14 09:54:50;;;;;;;25.93;8.07;;;49.70;1.00;;;;;;5025186;28;20482;-60
2022/04/14 09:57:18;;;;;;;27.27;8.00;;;49.70;1.00;;;;;;5028529;28;20501;-60
2022/04/14 09:59:45;;;;;;;27.90;7.90;;;50.00;1.00;;;;;;5029082;28;20467;-59
2022/04/14 10:02:13;;;;;;;24.60;7.90;;;50.60;1.00;;;;;;5030270;28;20475;-60
2022/04/14 10:04:41;;;;;;;25.23;6.90;;;50.80;1.00;;;;;;5027770;28;20455;-59
2022/04/14 10:07:10;;;;;;;29.07;7.60;;;50.90;1.00;;;;;;5026900;28;20490;-59
2022/04/14 10:09:39;;;;;;;25.33;7.40;;;51.50;1.00;;;;;;5024197;28;20458;-59
2022/04/14 10:12:30;;;;;;;30.40;7.70;;;51.60;1.00;;;;;;5027047;28;20490;-58
2022/04/14 10:15:02;;;;;;;27.73;7.70;;;51.70;1.00;;;;;;5023292;28;21020;-59
2022/04/14 10:17:31;;;;;;;25.83;8.50;;;51.80;1.00;;;;;;5028461;28;21061;-59
2022/04/14 10:19:58;;;;;;;24.60;6.90;;;51.60;1.00;;;;;;5024461;28;20470;-59
2022/04/14 10:22:25;;;;;;;24.60;7.33;;;51.60;1.00;;;;;;5029276;28;20466;-59
2022/04/14 10:24:53;;;;;;;26.60;7.43;;;51.40;1.00;;;;;;5028831;28;20448;-59
2022/04/14 10:27:22;;;;;;;26.50;8.00;;;51.30;1.00;;;;;;5023388;28;20540;-59
2022/04/14 10:29:50;;;;;;;25.80;8.50;;;51.10;1.00;;;;;;5037253;28;20518;-59
2022/04/14 10:32:17;;;;;;;25.70;8.20;;;50.90;1.00;;;;;;5023865;28;20476;-59
2022/04/14 10:34:45;;;;;;;26.03;9.00;;;50.80;1.00;;;;;;5028153;28;20483;-59
2022/04/14 10:37:19;;;;;;;27.00;9.10;;;50.70;1.00;;;;;;5027757;28;20884;-60
2022/04/14 10:39:48;;;;;;;25.37;8.97;;;50.60;1.00;;;;;;5029014;28;20838;-59
2022/04/14 10:42:19;;;;;;;24.90;8.40;;;50.50;1.00;;;;;;5026712;28;20496;-58
2022/04/14 10:44:48;;;;;;;26.37;8.57;;;50.10;1.00;;;;;;5033930;28;20459;-59
2022/04/14 10:47:33;;;;;;;28.20;9.80;;;49.70;1.00;;;;;;5028292;28;21029;-59
2022/04/14 10:49:59;;;;;;;26.60;9.33;;;49.40;1.00;;;;;;5031924;28;20485;-59
2022/04/14 10:52:28;;;;;;;27.93;9.43;;;48.90;1.00;;;;;;5024823;28;20455;-59
2022/04/14 10:54:58;;;;;;;28.83;9.53;;;48.30;1.00;;;;;;5041031;28;20485;-59
2022/04/14 10:57:38;;;;;;;30.43;9.37;;;46.70;1.00;;;;;;5025234;28;20493;-59
2022/04/14 11:00:38;;;;;;;30.17;8.70;;;44.80;1.00;;;;;;5023439;28;20485;-60
2022/04/14 11:03:08;;;;;;;31.13;10.23;;;42.70;1.00;;;;;;5026904;28;20477;-59
2022/04/14 11:05:39;;;;;;;28.70;9.10;;;40.80;1.00;;;;;;5025697;28;20555;-58
2022/04/14 11:08:24;;;;;;;32.00;10.17;;;39.30;1.00;;;;;;5026724;28;20574;-60
2022/04/14 11:10:55;;;;;;;28.80;8.33;;;38.00;1.00;;;;;;5020852;28;20459;-60
2022/04/14 11:13:22;;;;;;;29.50;8.17;;;36.90;1.00;;;;;;5035875;28;20465;-59
2022/04/14 11:15:50;;;;;;;29.43;8.43;;;36.10;1.00;;;;;;5033040;28;20486;-60
2022/04/14 11:18:18;;;;;;;29.33;7.17;;;35.50;1.00;;;;;;5025161;28;20467;-59
2022/04/14 11:21:06;;;;;;;29.60;7.60;;;34.70;1.00;;;;;;5023693;28;20459;-59
2022/04/14 11:23:35;;;;;;;30.90;7.30;;;34.00;1.00;;;;;;5020665;28;20479;-64
2022/04/14 11:26:12;;;;;;;30.77;8.20;;;33.40;1.00;;;;;;5028675;28;20635;-61
2022/04/14 11:28:43;;;;;;;29.83;7.03;;;32.90;1.00;;;;;;5023468;28;20461;-61
2022/04/14 11:31:27;;;;;;;30.70;6.30;;;32.30;1.00;;;;;;5029663;28;20590;-61
2022/04/14 11:33:57;;;;;;;30.53;7.30;;;31.90;1.00;;;;;;5026432;28;20523;-61
2022/04/14 11:36:26;;;;;;;28.90;6.23;;;31.50;1.00;;;;;;5034517;28;20491;-65
2022/04/14 11:38:59;;;;;;;30.57;6.27;;;31.10;1.00;;;;;;5027281;28;20583;-60
2022/04/14 11:41:37;;;;;;;29.63;6.33;;;30.80;1.00;;;;;;5024395;28;20459;-61
2022/04/14 11:44:06;;;;;;;31.40;7.07;;;30.50;1.00;;;;;;5034006;28;20489;-58
2022/04/14 11:46:33;;;;;;;29.60;6.67;;;30.30;1.00;;;;;;5028638;28;20538;-61
2022/04/14 11:49:02;;;;;;;29.13;6.10;;;29.90;1.00;;;;;;5024885;28;20474;-60
2022/04/14 11:51:29;;;;;;;30.07;6.57;;;29.70;1.00;;;;;;5040896;28;20458;-62
2022/04/14 11:53:56;;;;;;;31.27;7.70;;;29.40;1.00;;;;;;5021184;28;20554;-61
2022/04/14 11:56:25;;;;;;;34.03;6.93;;;29.10;1.00;;;;;;5032369;28;20743;-62
2022/04/14 11:58:52;;;;;;;29.53;6.27;;;29.00;1.00;;;;;;5031182;28;20529;-59
2022/04/14 12:01:19;;;;;;;30.20;7.23;;;28.80;1.00;;;;;;5018200;28;20872;-60
2022/04/14 12:03:46;;;;;;;31.03;6.93;;;28.60;1.00;;;;;;5024628;28;21102;-60
2022/04/14 12:06:17;;;;;;;33.33;7.10;;;28.40;1.00;;;;;;5025483;28;20479;-59
2022/04/14 12:08:53;;;;;;;37.57;8.23;;;28.30;1.00;;;;;;5026128;28;20459;-60
2022/04/14 12:11:21;;;;;;;32.50;6.73;;;28.10;1.00;;;;;;5026602;28;20517;-60
2022/04/14 12:13:48;;;;;;;30.73;7.30;;;27.90;1.00;;;;;;5020144;28;20459;-60
2022/04/14 12:16:15;;;;;;;31.90;6.47;;;27.70;1.00;;;;;;5017425;28;20519;-60
2022/04/14 12:18:50;;;;;;;30.37;6.47;;;27.50;1.00;;;;;;5027078;28;20459;-59
2022/04/14 12:21:22;;;;;;;32.40;7.43;;;27.40;1.00;;;;;;5022781;28;20524;-60
2022/04/14 12:23:52;;;;;;;35.63;7.90;;;27.30;1.00;;;;;;5027940;28;20462;-60
2022/04/14 12:26:20;;;;;;;31.20;7.93;;;27.20;1.00;;;;;;5031054;28;21044;-60
2022/04/14 12:28:47;;;;;;;31.27;6.37;;;27.10;1.00;;;;;;5022904;28;20458;-60
2022/04/14 12:31:16;;;;;;;32.00;7.63;;;27.00;1.00;;;;;;5027740;28;20483;-59
2022/04/14 12:33:55;;;;;;;32.57;7.60;;;26.90;1.00;;;;;;5025038;28;20462;-58
2022/04/14 12:36:34;;;;;;;30.70;6.90;;;26.80;1.00;;;;;;5026368;28;20512;-58
2022/04/14 12:39:01;;;;;;;32.17;6.33;;;26.70;1.60;;;;;;5020162;28;20471;-59
2022/04/14 12:41:34;;;;;;;32.87;6.80;;;26.50;1.10;;;;;;5024034;28;20921;-58
2022/04/14 12:44:01;;;;;;;30.40;6.27;;;26.50;2.20;;;;;;5020722;28;20456;-58